Time;durP1;ratioP1;P1;durP2;ratioP2;P2;SDS_P1;SDS_P2;PMS_P1;PMS_P2;Temp;Humidity;BMP_temperature;BMP_pressure;BME280_temperature;BME280_humidity;BME280_pressure;Samples;Min_cycle;Max_cycle;Signal;HPM_P1;HPM_P2
2022/11/07 00:00:12;;;;;;;;;4.00;2.50;;;;;12.51;79.44;100900.38;4977373;28;45760;-78
2022/11/07 00:02:37;;;;;;;;;6.25;1.75;;;;;12.53;79.57;100906.38;4975607;28;45551;-78
2022/11/07 00:05:04;;;;;;;;;3.00;2.00;;;;;12.54;79.63;100915.94;4976896;28;45583;-78
2022/11/07 00:07:29;;;;;;;;;3.75;2.00;;;;;12.54;79.58;100914.16;4977011;28;45685;-77
2022/11/07 00:09:54;;;;;;;;;2.25;1.00;;;;;12.51;79.61;100903.81;4959210;28;60494;-79
2022/11/07 00:12:20;;;;;;;;;2.00;2.00;;;;;12.52;79.68;100902.94;4976363;28;45349;-78
2022/11/07 00:14:45;;;;;;;;;2.00;1.25;;;;;12.54;79.56;100915.94;4975981;28;73056;-78
2022/11/07 00:17:10;;;;;;;;;2.00;2.00;;;;;12.55;79.28;100912.41;4975729;28;67812;-78
2022/11/07 00:19:36;;;;;;;;;3.75;2.00;;;;;12.52;79.43;100908.16;4976092;28;67293;-77
2022/11/07 00:22:01;;;;;;;;;4.00;1.00;;;;;12.56;79.53;100917.56;4976080;28;67334;-78
2022/11/07 00:24:26;;;;;;;;;6.00;2.00;;;;;12.56;79.42;100906.28;4976603;28;46134;-78
2022/11/07 00:26:52;;;;;;;;;2.75;1.00;;;;;12.54;79.47;100903.72;4958407;28;66036;-78
2022/11/07 00:29:19;;;;;;;;;1.00;1.00;;;;;12.56;79.79;100916.72;4976914;28;45750;-79
2022/11/07 00:31:47;;;;;;;;;3.00;0.50;;;;;12.57;79.42;100906.25;4976510;28;45444;-78
2022/11/07 00:34:13;;;;;;;;;1.25;0.00;;;;;12.58;79.55;100902.72;4976531;28;46077;-78
2022/11/07 00:36:38;;;;;;;;;3.75;2.00;;;;;12.58;79.34;100902.72;4976578;28;45369;-78
2022/11/07 00:39:04;;;;;;;;;2.75;2.50;;;;;12.58;79.10;100902.72;4976917;28;45253;-79
2022/11/07 00:41:30;;;;;;;;;2.00;1.00;;;;;12.57;79.28;100889.69;4972721;28;45339;-78
2022/11/07 00:43:55;;;;;;;;;3.25;0.25;;;;;12.60;79.07;100905.28;4975760;28;68349;-78
2022/11/07 00:46:21;;;;;;;;;3.25;2.00;;;;;12.61;79.09;100903.50;4975180;28;45447;-79
2022/11/07 00:48:47;;;;;;;;;1.75;1.50;;;;;12.61;79.05;100891.31;4975844;28;64036;-78
2022/11/07 00:51:16;;;;;;;;;1.00;0.25;;;;;12.64;79.09;100892.97;4976632;28;45613;-78
2022/11/07 00:53:43;;;;;;;;;0.25;0.00;;;;;12.69;78.81;100891.03;4976422;28;45417;-78
2022/11/07 00:56:11;;;;;;;;;3.50;1.00;;;;;12.71;78.99;100890.06;4976306;28;45639;-78
2022/11/07 00:58:36;;;;;;;;;6.75;2.00;;;;;12.70;78.84;100892.72;4976582;28;45333;-78
2022/11/07 01:01:16;;;;;;;;;2.75;0.75;;;;;12.75;78.74;100890.81;4976161;28;45354;-78
2022/11/07 01:06:28;;;;;;;;;1.50;0.75;;;;;12.81;78.71;100900.19;4975244;28;45775;-78
2022/11/07 01:08:55;;;;;;;;;5.50;2.25;;;;;12.82;78.91;100896.69;4976371;28;45374;-78
2022/11/07 01:11:20;;;;;;;;;11.25;1.50;;;;;12.81;78.56;100900.19;4976239;28;45503;-78
2022/11/07 01:13:46;;;;;;;;;3.00;2.00;;;;;12.83;78.86;100899.22;4975978;28;45752;-78
2022/11/07 01:16:11;;;;;;;;;2.50;2.50;;;;;12.85;78.75;100893.94;4974867;28;72749;-78
2022/11/07 01:18:37;;;;;;;;;3.50;1.00;;;;;12.89;78.58;100898.16;4958872;28;45376;-78
2022/11/07 01:21:04;;;;;;;;;3.00;1.00;;;;;12.92;78.67;100900.66;4976122;28;45409;-78
2022/11/07 01:23:29;;;;;;;;;2.50;0.00;;;;;12.94;78.36;100906.69;4975896;28;46045;-78
2022/11/07 01:25:55;;;;;;;;;3.00;1.50;;;;;12.92;78.48;100895.44;4979809;28;45429;-78
2022/11/07 01:28:20;;;;;;;;;6.00;1.00;;;;;12.95;78.30;100909.25;4978677;28;64294;-79
2022/11/07 01:30:45;;;;;;;;;4.75;0.00;;;;;12.91;78.16;100894.59;4978266;28;69303;-79
2022/11/07 01:33:11;;;;;;;;;1.00;1.00;;;;;12.92;78.22;100904.13;4978497;28;70484;-78
2022/11/07 01:35:37;;;;;;;;;1.00;1.00;;;;;12.95;78.34;100906.63;4979365;28;45499;-78
2022/11/07 01:38:03;;;;;;;;;2.25;1.00;;;;;12.91;78.23;100905.03;4978235;28;45431;-78
2022/11/07 01:40:29;;;;;;;;;1.75;1.75;;;;;12.96;78.17;100913.56;4979429;28;45509;-78
2022/11/07 01:42:54;;;;;;;;;4.50;0.00;;;;;12.93;78.02;100913.69;4979267;28;46028;-79
2022/11/07 01:45:26;;;;;;;;;2.50;1.50;;;;;12.95;78.00;100908.41;4978977;28;45244;-78
2022/11/07 01:47:52;;;;;;;;;3.00;2.00;;;;;12.97;78.21;100917.03;4979402;28;45434;-79
2022/11/07 01:50:17;;;;;;;;;3.50;2.00;;;;;12.98;78.04;100911.75;4977371;28;61430;-79
2022/11/07 01:52:46;;;;;;;;;3.50;2.00;;;;;13.00;77.83;100918.66;4978278;28;70883;-79
2022/11/07 01:55:32;;;;;;;;;1.25;1.00;;;;;12.99;78.05;100907.38;4979162;28;45400;-78
2022/11/07 01:58:04;;;;;;;;;6.75;1.25;;;;;13.00;78.29;100914.31;4979011;28;45401;-78
2022/11/07 02:00:30;;;;;;;;;2.25;1.75;;;;;13.01;78.09;100909.94;4961292;28;45693;-79
2022/11/07 02:03:16;;;;;;;;;2.00;1.00;;;;;12.98;78.27;100913.50;4978927;28;46655;-78
2022/11/07 02:05:51;;;;;;;;;4.00;1.00;;;;;12.98;78.11;100913.50;4960039;28;66109;-78
2022/11/07 02:08:16;;;;;;;;;3.50;1.50;;;;;12.96;77.90;100921.41;4979092;28;45368;-78
2022/11/07 02:10:42;;;;;;;;;2.75;1.00;;;;;12.91;77.71;100919.88;4978696;28;48470;-78
2022/11/07 02:13:09;;;;;;;;;2.00;1.00;;;;;12.92;77.94;100942.47;4978343;28;47491;-78
2022/11/07 02:15:34;;;;;;;;;3.00;1.50;;;;;12.89;78.19;100932.97;4977602;28;45667;-79
2022/11/07 02:18:00;;;;;;;;;4.00;2.00;;;;;12.86;78.05;100935.69;4978754;28;45436;-79
2022/11/07 02:20:26;;;;;;;;;3.00;1.75;;;;;12.86;78.23;100927.00;4976779;28;63085;-78
2022/11/07 02:23:00;;;;;;;;;1.00;1.00;;;;;12.88;78.09;100946.09;4961176;28;45513;-78
2022/11/07 02:25:25;;;;;;;;;3.25;2.00;;;;;12.85;78.44;100934.00;4977387;28;45322;-78
2022/11/07 02:27:59;;;;;;;;;3.50;1.00;;;;;12.86;78.31;100934.84;4977314;28;68400;-78
2022/11/07 02:30:27;;;;;;;;;1.75;1.00;;;;;12.81;78.41;100924.53;4961098;28;45411;-78
2022/11/07 02:32:53;;;;;;;;;6.75;1.00;;;;;12.86;78.26;100924.41;4977267;28;45424;-78
2022/11/07 02:35:27;;;;;;;;;3.00;0.00;;;;;12.86;78.11;100924.41;4977821;28;45448;-78
2022/11/07 02:37:53;;;;;;;;;2.25;1.25;;;;;12.84;78.24;100923.59;4978471;28;45348;-78
2022/11/07 02:40:19;;;;;;;;;1.50;1.50;;;;;12.87;78.04;100940.03;4977240;28;45271;-79
2022/11/07 02:42:45;;;;;;;;;2.00;0.00;;;;;12.86;78.08;100927.84;4959716;28;72865;-78
2022/11/07 02:45:13;;;;;;;;;8.75;1.00;;;;;12.88;78.04;100935.66;4960011;28;73164;-78
2022/11/07 02:47:39;;;;;;;;;4.00;2.00;;;;;12.91;78.25;100930.31;4960933;28;45410;-78
2022/11/07 02:50:09;;;;;;;;;1.50;1.00;;;;;12.88;77.99;100923.44;4978476;28;45439;-78
2022/11/07 02:52:35;;;;;;;;;2.00;1.00;;;;;12.88;78.29;100923.44;4960727;28;46746;-78
2022/11/07 02:55:00;;;;;;;;;1.75;0.75;;;;;12.94;78.07;100910.13;4978087;28;45453;-78
2022/11/07 02:57:25;;;;;;;;;2.00;1.75;;;;;12.94;77.68;100912.75;4977893;28;45344;-78
2022/11/07 02:59:51;;;;;;;;;1.50;1.00;;;;;12.97;77.82;100917.03;4978371;28;45392;-78
2022/11/07 03:02:16;;;;;;;;;6.00;1.00;;;;;12.98;77.91;100918.72;4976990;28;71138;-78
2022/11/07 03:04:41;;;;;;;;;3.50;2.00;;;;;13.00;77.60;100922.16;4977012;28;72764;-78
2022/11/07 03:07:07;;;;;;;;;1.25;0.75;;;;;13.00;77.73;100918.66;4977066;28;65916;-78
2022/11/07 03:09:32;;;;;;;;;2.50;1.00;;;;;12.98;77.63;100930.03;4977364;28;60637;-79
2022/11/07 03:11:57;;;;;;;;;1.75;1.50;;;;;12.97;77.34;100923.09;4976672;28;74769;-78
2022/11/07 03:14:23;;;;;;;;;2.00;2.00;;;;;12.99;77.58;100930.88;4959572;28;67218;-78
2022/11/07 03:16:48;;;;;;;;;1.25;1.00;;;;;13.00;77.46;100923.91;4977256;28;59713;-78
2022/11/07 03:19:13;;;;;;;;;4.00;1.00;;;;;13.01;77.63;100938.69;4978011;28;45285;-78
2022/11/07 03:21:39;;;;;;;;;3.00;0.00;;;;;13.01;77.56;100936.06;4977505;28;46926;-78
2022/11/07 03:24:04;;;;;;;;;4.75;1.75;;;;;12.98;77.22;100937.88;4976979;28;64424;-78
2022/11/07 03:26:29;;;;;;;;;5.00;1.00;;;;;12.99;77.29;100930.88;4977499;28;45358;-78
2022/11/07 03:28:55;;;;;;;;;1.75;0.00;;;;;12.99;77.33;100938.72;4977799;28;45277;-78
2022/11/07 03:31:21;;;;;;;;;3.00;1.50;;;;;13.02;77.09;100948.22;4977418;28;46363;-78
2022/11/07 03:33:46;;;;;;;;;3.25;0.25;;;;;13.01;77.47;100942.13;4976659;28;68829;-78
2022/11/07 03:36:11;;;;;;;;;6.00;1.00;;;;;13.01;77.70;100929.06;4976890;28;65199;-78
2022/11/07 03:38:36;;;;;;;;;2.00;2.00;;;;;13.02;77.40;100922.06;4976523;28;69930;-78
2022/11/07 03:41:02;;;;;;;;;3.75;0.25;;;;;13.03;77.21;100926.41;4976050;28;73810;-78
2022/11/07 03:43:27;;;;;;;;;2.75;0.25;;;;;13.01;77.20;100923.00;4976366;28;70344;-78
2022/11/07 03:45:52;;;;;;;;;1.25;1.25;;;;;13.02;77.14;100916.84;4976648;28;67876;-78
2022/11/07 03:48:18;;;;;;;;;4.00;1.00;;;;;13.01;77.63;100917.78;4975702;28;64415;-78
2022/11/07 03:50:43;;;;;;;;;2.00;0.75;;;;;13.00;77.48;100911.72;4976399;28;74066;-78
2022/11/07 03:53:09;;;;;;;;;7.00;1.50;;;;;13.03;77.41;100908.97;4977393;28;45252;-78
2022/11/07 03:55:34;;;;;;;;;3.75;2.00;;;;;13.03;77.46;100914.19;4977027;28;45284;-78
2022/11/07 03:57:59;;;;;;;;;2.25;1.00;;;;;13.02;77.80;100916.84;4976472;28;66908;-78
2022/11/07 04:00:25;;;;;;;;;2.25;2.00;;;;;13.01;77.52;100916.00;4976091;28;75513;-78
2022/11/07 04:02:50;;;;;;;;;2.00;1.00;;;;;13.04;77.73;100915.91;4976250;28;72970;-78
2022/11/07 04:05:15;;;;;;;;;2.25;1.00;;;;;13.02;77.38;100914.25;4959715;28;45385;-78
2022/11/07 04:07:41;;;;;;;;;2.00;1.00;;;;;13.01;77.65;100913.41;4977184;28;45333;-78
2022/11/07 04:10:06;;;;;;;;;1.00;1.00;;;;;13.01;77.91;100912.56;4975729;28;73547;-78
2022/11/07 04:17:59;;;;;;;;;3.75;0.75;;;;;13.03;77.96;100919.41;4977171;28;45251;-78
2022/11/07 04:20:26;;;;;;;;;2.50;0.00;;;;;13.03;77.96;100922.03;4975982;28;71058;-78
2022/11/07 04:22:51;;;;;;;;;5.25;3.50;;;;;13.05;77.62;100919.38;4976850;28;45698;-78
2022/11/07 04:25:16;;;;;;;;;6.25;2.00;;;;;13.05;77.64;100921.97;4976116;28;52755;-78
2022/11/07 04:27:42;;;;;;;;;2.00;0.25;;;;;13.06;77.91;100923.69;4976050;28;67581;-78
2022/11/07 04:30:18;;;;;;;;;1.00;1.00;;;;;13.06;77.65;100924.53;4959019;28;47229;-78
2022/11/07 04:32:54;;;;;;;;;4.25;0.00;;;;;13.07;77.66;100926.22;4976718;28;45657;-78
2022/11/07 04:35:22;;;;;;;;;4.00;1.00;;;;;13.12;77.58;100941.75;4959356;28;45607;-80
2022/11/07 04:37:47;;;;;;;;;2.00;0.75;;;;;13.12;77.59;100926.06;4955822;28;45298;-78
2022/11/07 04:40:14;;;;;;;;;1.25;1.25;;;;;13.15;77.52;100932.03;4955733;28;69553;-78
2022/11/07 04:42:39;;;;;;;;;4.75;2.00;;;;;13.12;77.49;100926.91;4957233;28;45461;-78
2022/11/07 04:45:05;;;;;;;;;3.00;1.25;;;;;13.15;77.39;100926.81;4956943;28;47735;-78
2022/11/07 04:47:31;;;;;;;;;1.75;1.75;;;;;13.15;77.52;100923.38;4956034;28;45522;-78
2022/11/07 04:49:56;;;;;;;;;3.75;1.75;;;;;13.15;77.61;100936.44;4955966;28;74820;-79
2022/11/07 04:52:21;;;;;;;;;2.25;1.75;;;;;13.13;77.72;100930.38;4954843;28;68047;-78
2022/11/07 04:54:47;;;;;;;;;5.25;1.25;;;;;13.12;77.77;100934.75;4956422;28;49698;-78
2022/11/07 04:57:12;;;;;;;;;1.50;1.00;;;;;13.12;77.74;100926.91;4956961;28;45541;-78
2022/11/07 04:59:37;;;;;;;;;1.00;1.00;;;;;13.08;77.99;100921.88;4956503;28;46071;-79
2022/11/07 05:02:03;;;;;;;;;2.50;1.00;;;;;13.10;77.63;100917.44;4957001;28;45455;-79
2022/11/07 05:04:28;;;;;;;;;7.00;1.00;;;;;13.12;77.60;100919.09;4955913;28;69199;-78
2022/11/07 05:06:54;;;;;;;;;7.25;2.00;;;;;13.11;77.65;100917.38;4956854;28;45293;-78
2022/11/07 05:09:19;;;;;;;;;2.00;2.00;;;;;13.09;77.89;100911.38;4955471;28;75612;-78
2022/11/07 05:11:45;;;;;;;;;4.00;1.00;;;;;13.10;77.48;100920.91;4955780;28;70868;-78
2022/11/07 05:14:11;;;;;;;;;1.00;1.00;;;;;13.08;77.75;100914.03;4971986;28;45341;-78
2022/11/07 05:16:37;;;;;;;;;3.00;0.75;;;;;13.12;77.93;100929.53;4956969;28;45309;-78
2022/11/07 05:19:02;;;;;;;;;3.25;1.00;;;;;13.12;77.67;100920.84;4971571;28;45402;-79
2022/11/07 05:21:27;;;;;;;;;7.00;1.50;;;;;13.13;77.46;100928.63;4956190;28;45330;-78
2022/11/07 05:23:53;;;;;;;;;3.25;1.75;;;;;13.11;77.93;100925.22;4955849;28;65673;-78
2022/11/07 05:26:18;;;;;;;;;1.75;1.00;;;;;13.16;77.80;100936.34;4956574;28;45560;-78
2022/11/07 05:28:43;;;;;;;;;5.00;1.00;;;;;13.16;77.72;100941.56;4955494;28;74109;-79
2022/11/07 05:31:14;;;;;;;;;4.25;1.00;;;;;13.18;77.75;100939.75;4955770;28;63142;-78
2022/11/07 05:33:39;;;;;;;;;1.00;1.00;;;;;13.21;77.58;100951.03;4956603;28;45451;-78
2022/11/07 05:36:12;;;;;;;;;2.50;1.75;;;;;13.23;77.40;100950.06;4955206;28;70569;-78
2022/11/07 05:38:42;;;;;;;;;2.00;1.00;;;;;13.28;77.27;100957.72;4975376;28;45529;-78
2022/11/07 05:41:08;;;;;;;;;2.00;1.00;;;;;13.30;77.50;100956.81;4975685;28;45707;-79
2022/11/07 05:43:33;;;;;;;;;3.75;1.00;;;;;13.27;77.33;100954.25;4975759;28;45412;-79
2022/11/07 05:45:59;;;;;;;;;3.50;1.75;;;;;13.29;77.51;100959.44;4975126;28;68523;-79
2022/11/07 05:48:24;;;;;;;;;3.00;1.00;;;;;13.29;77.37;100962.91;4975863;28;45579;-79
2022/11/07 05:50:50;;;;;;;;;1.00;0.00;;;;;13.31;77.29;100961.09;4975174;28;51973;-78
2022/11/07 05:53:16;;;;;;;;;2.50;1.00;;;;;13.29;77.36;100954.22;4975897;28;45387;-78
2022/11/07 05:55:41;;;;;;;;;1.00;1.00;;;;;13.31;77.55;100961.09;4974466;28;45377;-78
2022/11/07 05:58:10;;;;;;;;;0.00;0.00;;;;;13.32;77.08;100960.22;4974578;28;71875;-80
2022/11/07 06:00:35;;;;;;;;;2.00;1.00;;;;;13.32;77.40;100952.38;4974414;28;45527;-78
2022/11/07 06:03:01;;;;;;;;;2.25;0.00;;;;;13.33;77.34;100969.78;4990010;28;69513;-80
2022/11/07 06:05:27;;;;;;;;;1.50;0.25;;;;;13.32;77.33;100951.53;4975288;28;45286;-78
2022/11/07 06:07:52;;;;;;;;;4.25;1.50;;;;;13.29;77.36;100949.81;4975349;28;45378;-78
2022/11/07 06:10:18;;;;;;;;;5.25;2.00;;;;;13.29;77.54;100944.59;4990546;28;67398;-78
2022/11/07 06:12:43;;;;;;;;;2.25;0.00;;;;;13.31;77.28;100957.66;4979069;28;45369;-78
2022/11/07 06:15:09;;;;;;;;;3.75;1.00;;;;;13.30;76.97;100959.41;4994156;28;45799;-78
2022/11/07 06:17:34;;;;;;;;;3.00;2.00;;;;;13.29;77.49;100962.06;4978665;28;46209;-78
2022/11/07 06:19:59;;;;;;;;;3.00;1.00;;;;;13.28;76.85;100970.78;4978045;28;52676;-78
2022/11/07 06:22:25;;;;;;;;;1.25;1.00;;;;;13.27;77.07;100964.72;4978115;28;63534;-79
2022/11/07 06:24:50;;;;;;;;;1.75;1.25;;;;;13.25;77.09;100969.16;4977798;28;68786;-79
2022/11/07 06:27:16;;;;;;;;;2.75;0.75;;;;;13.23;77.10;100962.28;4977957;28;73250;-78
2022/11/07 06:29:41;;;;;;;;;1.00;1.00;;;;;13.25;77.40;100974.38;4978580;28;45446;-79
2022/11/07 06:32:06;;;;;;;;;2.00;1.00;;;;;13.21;77.61;100967.56;4977811;28;64841;-79
2022/11/07 06:34:32;;;;;;;;;3.75;0.50;;;;;13.23;77.32;100973.59;4978092;28;45363;-78
2022/11/07 06:36:57;;;;;;;;;2.25;1.00;;;;;13.24;76.96;100974.44;4977774;28;59678;-78
2022/11/07 06:39:22;;;;;;;;;2.25;1.00;;;;;13.20;77.19;100971.06;4977504;28;71203;-78
2022/11/07 06:41:48;;;;;;;;;5.75;0.25;;;;;13.24;77.48;100974.44;4993592;28;45412;-78
2022/11/07 06:44:14;;;;;;;;;4.75;0.00;;;;;13.22;77.38;100971.88;4977469;28;67524;-78
2022/11/07 06:46:39;;;;;;;;;4.25;1.50;;;;;13.20;77.54;100978.91;4978383;28;46704;-79
2022/11/07 06:49:04;;;;;;;;;3.00;1.00;;;;;13.22;77.69;100986.72;4977124;28;73100;-78
2022/11/07 06:51:30;;;;;;;;;4.00;1.00;;;;;13.17;77.57;100976.44;4977750;28;57033;-79
2022/11/07 06:53:56;;;;;;;;;2.00;2.00;;;;;13.21;77.60;100985.84;4977705;28;62052;-78
2022/11/07 06:56:22;;;;;;;;;1.50;1.50;;;;;13.22;77.93;100982.31;4977979;28;47468;-78
2022/11/07 06:58:47;;;;;;;;;2.50;1.00;;;;;13.20;77.60;100972.84;4978047;28;45328;-79
2022/11/07 07:01:13;;;;;;;;;2.00;1.50;;;;;13.20;77.64;100971.06;4977518;28;62504;-78
2022/11/07 07:03:40;;;;;;;;;1.50;1.00;;;;;13.23;77.75;100978.81;4977744;28;45426;-78
2022/11/07 07:06:08;;;;;;;;;0.50;0.00;;;;;13.30;77.59;100982.94;4978103;28;46807;-78
2022/11/07 07:08:33;;;;;;;;;1.00;1.00;;;;;13.31;77.88;100983.78;4960526;28;46221;-78
2022/11/07 07:11:04;;;;;;;;;7.00;1.25;;;;;13.34;77.82;100979.31;4978175;28;45448;-79
2022/11/07 07:13:29;;;;;;;;;3.75;1.75;;;;;13.41;78.35;100997.38;4977975;28;45374;-78
2022/11/07 07:15:56;;;;;;;;;5.25;1.00;;;;;13.42;77.80;100993.88;4976654;28;45508;-78
2022/11/07 07:18:22;;;;;;;;;2.25;1.25;;;;;13.46;77.71;100988.44;4976330;28;45339;-79
2022/11/07 07:20:48;;;;;;;;;2.75;1.25;;;;;13.45;78.02;100988.53;4960168;28;45429;-78
2022/11/07 07:23:17;;;;;;;;;2.50;2.50;;;;;13.48;77.56;100993.63;4977991;28;45309;-78
2022/11/07 07:25:43;;;;;;;;;3.50;1.00;;;;;13.49;77.95;100995.34;4976518;28;46635;-79
2022/11/07 07:28:08;;;;;;;;;9.25;2.50;;;;;13.53;77.49;100994.31;4977657;28;45318;-78
2022/11/07 07:30:34;;;;;;;;;2.75;1.00;;;;;13.55;77.90;100995.94;4977722;28;45287;-78
2022/11/07 07:32:59;;;;;;;;;1.00;1.00;;;;;13.61;77.79;101002.72;4976368;28;69303;-78
2022/11/07 07:35:24;;;;;;;;;3.25;1.00;;;;;13.66;77.67;100989.47;4976489;28;75461;-78
2022/11/07 07:37:50;;;;;;;;;7.00;3.00;;;;;13.69;77.31;101000.69;4976439;28;68273;-78
2022/11/07 07:40:17;;;;;;;;;2.50;1.00;;;;;13.71;77.59;101003.25;4963588;28;45432;-78
2022/11/07 07:42:42;;;;;;;;;4.75;1.00;;;;;13.72;77.22;101013.66;4976485;28;45315;-78
2022/11/07 07:45:12;;;;;;;;;4.00;1.75;;;;;13.73;77.33;101011.88;4976147;28;46272;-78
2022/11/07 07:47:38;;;;;;;;;4.00;2.00;;;;;13.78;77.49;101015.19;4975938;28;45542;-78
2022/11/07 07:50:05;;;;;;;;;3.00;2.00;;;;;13.81;77.42;101007.22;4974777;28;45491;-78
2022/11/07 07:52:30;;;;;;;;;4.00;1.00;;;;;13.80;77.26;100996.78;4975976;28;45518;-78
2022/11/07 07:54:55;;;;;;;;;2.25;1.00;;;;;13.88;76.82;101005.22;4976131;28;68453;-77
2022/11/07 07:57:21;;;;;;;;;2.25;2.25;;;;;13.93;77.66;101005.91;4972788;28;45381;-79
2022/11/07 07:59:46;;;;;;;;;7.50;2.00;;;;;13.98;76.71;101013.56;4956780;28;67799;-80
2022/11/07 08:02:11;;;;;;;;;8.50;2.25;;;;;14.02;76.81;101015.13;4954043;28;63464;-78
2022/11/07 08:04:37;;;;;;;;;1.00;0.50;;;;;14.09;76.52;101017.44;4954557;28;45464;-79
2022/11/07 08:07:02;;;;;;;;;2.75;1.00;;;;;14.16;76.65;101028.56;4957206;28;45396;-78
2022/11/07 08:09:30;;;;;;;;;2.25;1.00;;;;;14.18;76.56;101018.88;4955341;28;66975;-79
2022/11/07 08:11:55;;;;;;;;;2.75;0.75;;;;;14.31;76.41;101024.47;4957536;28;45565;-79
2022/11/07 08:14:21;;;;;;;;;4.75;2.00;;;;;14.39;76.06;101035.47;4953921;28;73674;-78
2022/11/07 08:16:46;;;;;;;;;3.25;1.00;;;;;14.45;76.31;101018.66;4958731;28;62481;-78
2022/11/07 08:19:11;;;;;;;;;5.75;2.75;;;;;14.56;76.00;101040.06;4975803;28;69640;-78
2022/11/07 08:21:37;;;;;;;;;1.75;1.00;;;;;14.63;75.68;101024.97;4958671;28;68349;-78
2022/11/07 08:24:02;;;;;;;;;3.00;1.00;;;;;14.75;75.06;101029.72;4975487;28;75013;-78
2022/11/07 08:26:27;;;;;;;;;2.75;1.00;;;;;14.83;75.18;101034.63;4976441;28;45473;-77
2022/11/07 08:28:53;;;;;;;;;4.75;2.00;;;;;14.88;74.70;101041.38;4975550;28;62831;-78
2022/11/07 08:31:18;;;;;;;;;3.00;2.00;;;;;14.87;74.38;101041.44;4976390;28;45460;-79
2022/11/07 08:33:44;;;;;;;;;2.25;1.00;;;;;14.91;74.42;101050.88;4975034;28;66376;-78
2022/11/07 08:36:09;;;;;;;;;2.00;1.00;;;;;14.93;74.03;101040.31;4975331;28;71161;-78
2022/11/07 08:38:35;;;;;;;;;4.00;1.00;;;;;14.96;73.89;101041.03;4976234;28;45670;-77
2022/11/07 08:41:00;;;;;;;;;1.00;1.00;;;;;14.96;73.75;101048.06;4976173;28;45506;-77
2022/11/07 08:43:26;;;;;;;;;1.00;0.75;;;;;14.98;73.71;101043.59;4974997;28;74567;-78
2022/11/07 08:45:53;;;;;;;;;4.75;1.00;;;;;15.03;73.78;101045.13;4974520;28;67730;-76
2022/11/07 08:48:18;;;;;;;;;3.50;0.50;;;;;15.09;73.21;101047.47;4972209;28;45531;-77
2022/11/07 08:50:44;;;;;;;;;4.75;1.00;;;;;15.13;73.38;101045.56;4990095;28;63095;-76
2022/11/07 08:53:10;;;;;;;;;2.50;2.00;;;;;15.19;72.75;101045.31;4992156;28;75733;-77
2022/11/07 08:55:36;;;;;;;;;1.00;0.25;;;;;15.18;72.46;101040.97;4980139;28;45505;-76
2022/11/07 08:58:03;;;;;;;;;1.00;1.00;;;;;15.20;72.76;101038.28;4980303;28;45304;-77
2022/11/07 09:00:29;;;;;;;;;7.25;1.50;;;;;15.19;72.50;101039.19;4983430;28;45517;-80
2022/11/07 09:02:55;;;;;;;;;5.50;2.50;;;;;15.18;72.62;101058.50;4995575;28;46318;-77
2022/11/07 09:05:20;;;;;;;;;4.75;2.00;;;;;15.13;72.38;101057.84;4980273;28;45875;-77
2022/11/07 09:07:46;;;;;;;;;5.00;3.50;;;;;15.09;72.74;101060.56;4979513;28;45380;-78
2022/11/07 09:10:11;;;;;;;;;4.25;2.75;;;;;15.07;72.98;101053.69;4977742;28;67685;-78
2022/11/07 09:12:44;;;;;;;;;6.50;2.00;;;;;15.09;72.60;101067.59;4973641;28;70996;-78
2022/11/07 09:15:09;;;;;;;;;6.50;3.25;;;;;15.09;73.03;101068.44;4957911;28;45551;-77
2022/11/07 09:17:34;;;;;;;;;3.75;2.00;;;;;15.13;72.50;101078.81;4979224;28;45353;-78
2022/11/07 09:20:00;;;;;;;;;3.00;1.00;;;;;15.13;72.82;101073.56;4984277;28;66339;-79
2022/11/07 09:22:25;;;;;;;;;2.50;2.00;;;;;15.06;73.06;101062.47;4979406;28;45765;-78
2022/11/07 09:24:51;;;;;;;;;1.75;0.75;;;;;15.13;72.66;101087.50;4982292;28;64008;-78
2022/11/07 09:27:16;;;;;;;;;2.75;1.00;;;;;15.12;72.52;101091.06;4979964;28;66768;-77
2022/11/07 09:29:41;;;;;;;;;0.00;0.00;;;;;15.10;72.47;101072.78;4977844;28;45325;-76
2022/11/07 09:32:07;;;;;;;;;0.75;0.00;;;;;15.13;72.86;101069.16;4994987;28;47103;-76
2022/11/07 09:34:32;;;;;;;;;4.00;0.75;;;;;15.21;72.80;101063.59;4994005;28;69492;-77
2022/11/07 09:36:57;;;;;;;;;2.25;0.50;;;;;15.29;72.27;101057.09;4984969;28;55653;-77
2022/11/07 09:39:23;;;;;;;;;2.00;1.00;;;;;15.42;72.33;101069.69;4978984;28;45708;-77
2022/11/07 09:42:02;;;;;;;;;2.00;1.00;;;;;15.48;71.81;101064.16;4960291;28;69748;-78
2022/11/07 09:44:37;;;;;;;;;3.25;1.00;;;;;15.58;71.44;101059.34;4957150;28;45461;-77
2022/11/07 09:47:16;;;;;;;;;1.00;1.00;;;;;15.61;71.30;101070.56;4978621;28;45405;-78
2022/11/07 09:50:04;;;;;;;;;3.50;2.00;;;;;15.63;71.63;101073.13;4978639;28;45563;-77
2022/11/07 09:52:30;;;;;;;;;1.00;1.00;;;;;15.67;71.14;101074.69;4977275;28;45609;-76
2022/11/07 09:55:02;;;;;;;;;1.00;1.00;;;;;15.65;70.87;101071.28;4978115;28;45904;-77
2022/11/07 09:57:32;;;;;;;;;2.25;1.00;;;;;15.67;70.62;101069.44;4978729;28;45312;-77
2022/11/07 10:00:01;;;;;;;;;2.00;1.00;;;;;15.65;70.70;101084.41;4961259;28;45511;-78
2022/11/07 10:02:30;;;;;;;;;3.00;1.00;;;;;15.66;70.88;101075.63;4978520;28;45575;-78
2022/11/07 10:04:57;;;;;;;;;2.00;1.00;;;;;15.76;70.78;101069.06;4978325;28;45436;-77
2022/11/07 10:07:44;;;;;;;;;0.00;0.00;;;;;15.78;70.92;101063.75;4978359;28;45357;-77
2022/11/07 10:10:46;;;;;;;;;2.50;1.00;;;;;15.73;70.34;101068.31;4957796;28;45443;-78
2022/11/07 10:13:27;;;;;;;;;1.50;1.00;;;;;15.68;70.52;101081.66;4910289;28;45508;-77
2022/11/07 10:16:13;;;;;;;;;3.50;2.00;;;;;15.65;71.12;101081.78;4918005;28;45410;-77
2022/11/07 10:18:51;;;;;;;;;1.25;1.00;;;;;15.63;70.98;101081.00;4937557;28;45519;-78
2022/11/07 10:21:30;;;;;;;;;2.00;2.00;;;;;15.65;71.34;101066.88;4906043;28;45754;-78
2022/11/07 10:24:07;;;;;;;;;2.25;1.50;;;;;15.73;71.06;101073.56;4902272;28;45486;-77
2022/11/07 10:26:34;;;;;;;;;2.00;1.00;;;;;15.77;70.44;101060.28;4925447;28;45457;-77
2022/11/07 10:29:08;;;;;;;;;4.00;0.00;;;;;15.87;70.55;101071.19;4912562;28;45476;-77
2022/11/07 10:31:38;;;;;;;;;0.00;0.00;;;;;15.90;70.14;101057.06;4917742;28;45574;-77
2022/11/07 10:34:12;;;;;;;;;5.25;1.00;;;;;15.98;70.18;101054.97;4901838;28;47499;-78
2022/11/07 10:36:37;;;;;;;;;3.50;1.00;;;;;16.01;70.40;101049.53;4904849;28;45392;-77
2022/11/07 10:39:12;;;;;;;;;3.50;2.25;;;;;16.20;70.41;101055.66;4923314;28;65551;-76
2022/11/07 10:41:40;;;;;;;;;2.75;2.00;;;;;16.37;69.89;101064.50;4919459;28;45667;-78
2022/11/07 10:44:12;;;;;;;;;1.75;1.00;;;;;16.44;68.59;101066.75;4916623;28;47449;-78
2022/11/07 10:46:45;;;;;;;;;3.00;1.00;;;;;16.41;69.05;101058.16;4917409;28;45687;-78
2022/11/07 10:49:28;;;;;;;;;5.00;1.50;;;;;16.46;69.16;101056.19;4932606;28;45492;-78
2022/11/07 10:52:04;;;;;;;;;4.00;1.25;;;;;16.56;68.58;101070.56;4941132;28;45568;-77
2022/11/07 10:54:30;;;;;;;;;2.00;1.00;;;;;16.75;68.57;101059.13;4953507;28;45482;-78
2022/11/07 10:57:08;;;;;;;;;5.25;2.00;;;;;17.05;68.25;101062.06;4959298;28;45785;-78
2022/11/07 10:59:35;;;;;;;;;2.50;2.00;;;;;17.16;67.53;101066.75;4977139;28;45300;-77
2022/11/07 11:02:01;;;;;;;;;4.50;2.75;;;;;17.24;67.06;101075.13;4960204;28;45358;-77
2022/11/07 11:04:31;;;;;;;;;1.25;1.25;;;;;17.16;66.48;101075.50;4985203;28;45615;-78
2022/11/07 11:07:05;;;;;;;;;1.50;1.50;;;;;17.12;66.78;101062.56;4977373;28;45272;-77
2022/11/07 11:09:33;;;;;;;;;1.00;1.00;;;;;17.45;67.45;101057.34;4959240;28;45375;-77
2022/11/07 11:12:06;;;;;;;;;3.50;1.00;;;;;18.17;65.80;101047.38;4979971;28;45438;-77
2022/11/07 11:14:32;;;;;;;;;2.00;1.00;;;;;19.14;64.92;101047.91;4945005;28;45476;-78
2022/11/07 11:16:57;;;;;;;;;3.50;0.75;;;;;20.30;61.02;101043.44;4984491;28;45428;-78
2022/11/07 11:19:27;;;;;;;;;1.25;1.00;;;;;21.18;59.46;101049.03;4964345;28;69353;-78
2022/11/07 11:21:54;;;;;;;;;2.25;1.75;;;;;21.60;56.58;101054.09;4964423;28;45490;-77
2022/11/07 11:24:36;;;;;;;;;5.25;2.00;;;;;21.62;54.37;101045.13;4950758;28;46705;-78
2022/11/07 11:27:16;;;;;;;;;2.00;1.00;;;;;21.70;53.90;101041.91;4965576;28;45871;-77
2022/11/07 11:30:20;;;;;;;;;4.75;1.00;;;;;21.14;53.42;101046.72;4991494;28;45468;-78
2022/11/07 11:33:05;;;;;;;;;1.25;1.25;;;;;20.51;54.95;101054.38;4894583;28;62885;-78